This is the latest recevied weather packets stored in our database for station/object R1ZCU-14. If no packets are shown the sender has not sent any weather packets the latest 10 day(s).
| Time | Temp. | Humidity | Pressure | Rain* | Wind** | Luminosity | Snow |
|---|---|---|---|---|---|---|---|
| 1778175876 | 5° C | 60% | 1010.7 hPa | - | - | - | - |
| 1778175275 | 5° C | 60% | 1010.7 hPa | - | - | - | - |
| 1778174675 | 5.56° C | 60% | 1010.6 hPa | - | - | - | - |
| 1778174074 | 5° C | 61% | 1010.5 hPa | - | - | - | - |
| 1778173474 | 5° C | 63% | 1010.5 hPa | - | - | - | - |
| 1778172873 | 5° C | 62% | 1010.4 hPa | - | - | - | - |
| 1778172273 | 5° C | 58% | 1010.4 hPa | - | - | - | - |
| 1778171672 | 5.56° C | 58% | 1010.3 hPa | - | - | - | - |
| 1778171072 | 5° C | 60% | 1010.3 hPa | - | - | - | - |
| 1778170471 | 5° C | 58% | 1010.3 hPa | - | - | - | - |
| 1778169871 | 5.56° C | 58% | 1010.2 hPa | - | - | - | - |
| 1778169271 | 5.56° C | 60% | 1010.2 hPa | - | - | - | - |
| 1778168670 | 5° C | 61% | 1010.2 hPa | - | - | - | - |
| 1778168069 | 5° C | 61% | 1010.3 hPa | - | - | - | - |
| 1778167469 | 5° C | 60% | 1010.2 hPa | - | - | - | - |
| 1778166869 | 5° C | 59% | 1010.2 hPa | - | - | - | - |
| 1778166268 | 5.56° C | 55% | 1009.9 hPa | - | - | - | - |
| 1778165668 | 5.56° C | 53% | 1009.9 hPa | - | - | - | - |
| 1778165067 | 6.11° C | 49% | 1009.8 hPa | - | - | - | - |
| 1778164466 | 6.11° C | 48% | 1009.7 hPa | - | - | - | - |
| 1778163866 | 6.11° C | 48% | 1009.8 hPa | - | - | - | - |
| 1778163265 | 6.11° C | 48% | 1009.6 hPa | - | - | - | - |
| 1778162665 | 6.11° C | 47% | 1009.5 hPa | - | - | - | - |
| 1778162064 | 7.22° C | 44% | 1009.4 hPa | - | - | - | - |
| 1778161464 | 7.78° C | 40% | 1009.3 hPa | - | - | - | - |
* Rain since midnight (hover to see other rain measurements)
** Current wind speed in m/s (hover to see current wind gust speed)